createdAt,value
2018-12-15T00:00:45.304Z,9.37
2018-12-15T00:03:12.772Z,10.87
2018-12-15T00:05:40.237Z,6.90
2018-12-15T00:08:07.725Z,9.03
2018-12-15T00:10:35.181Z,9.70
2018-12-15T00:13:02.654Z,9.53
2018-12-15T00:15:30.169Z,9.23
2018-12-15T00:17:57.660Z,9.90
2018-12-15T00:20:25.116Z,9.40
2018-12-15T00:22:52.580Z,9.97
2018-12-15T00:25:20.085Z,10.13
2018-12-15T00:27:47.553Z,8.70
2018-12-15T00:30:15.018Z,9.07
2018-12-15T00:32:42.486Z,10.57
2018-12-15T00:35:09.972Z,9.00
2018-12-15T00:37:37.483Z,9.53
2018-12-15T00:40:05.258Z,9.30
2018-12-15T00:42:33.107Z,9.03
2018-12-15T00:45:00.593Z,10.07
2018-12-15T00:47:28.100Z,7.73
2018-12-15T00:49:55.536Z,9.53
2018-12-15T00:52:23.001Z,8.50
2018-12-15T00:54:50.528Z,9.47
2018-12-15T00:57:17.967Z,7.53
2018-12-15T00:59:45.414Z,7.50
2018-12-15T01:02:12.924Z,11.10
2018-12-15T01:04:40.402Z,9.97
2018-12-15T01:07:07.897Z,8.80
2018-12-15T01:09:35.378Z,10.13
2018-12-15T01:12:02.828Z,9.07
2018-12-15T01:14:30.285Z,9.90
2018-12-15T01:16:57.789Z,9.50
2018-12-15T01:19:25.245Z,9.33
2018-12-15T01:21:52.726Z,9.43
2018-12-15T01:24:20.184Z,9.60
2018-12-15T01:26:47.644Z,8.37
2018-12-15T01:29:15.126Z,10.33
2018-12-15T01:31:42.602Z,11.27
2018-12-15T01:34:10.074Z,13.00
2018-12-15T01:36:37.547Z,10.90
2018-12-15T01:39:06.187Z,10.33
2018-12-15T01:41:33.695Z,8.70
2018-12-15T01:44:01.142Z,10.30
2018-12-15T01:46:28.610Z,9.30
2018-12-15T01:48:56.077Z,10.40
2018-12-15T01:51:23.581Z,10.73
2018-12-15T01:53:51.054Z,11.30
2018-12-15T01:56:18.511Z,9.50
2018-12-15T01:58:45.982Z,10.10
2018-12-15T02:01:13.432Z,9.40
2018-12-15T02:03:40.893Z,11.03
2018-12-15T02:06:08.357Z,10.10
2018-12-15T02:08:35.906Z,11.30
2018-12-15T02:11:03.424Z,10.90
2018-12-15T02:13:30.921Z,10.13
2018-12-15T02:15:58.385Z,9.80
2018-12-15T02:18:25.856Z,9.90
2018-12-15T02:20:53.316Z,10.40
2018-12-15T02:23:20.803Z,10.97
2018-12-15T02:25:48.293Z,10.60
2018-12-15T02:28:15.763Z,8.63
2018-12-15T02:30:43.255Z,10.47
2018-12-15T02:33:10.709Z,10.70
2018-12-15T02:35:38.232Z,10.23
2018-12-15T02:38:05.677Z,10.00
2018-12-15T02:40:33.145Z,11.77
2018-12-15T02:43:00.610Z,10.70
2018-12-15T02:45:28.075Z,11.37
2018-12-15T02:47:55.560Z,11.13
2018-12-15T02:50:23.028Z,10.07
2018-12-15T02:52:50.500Z,11.70
2018-12-15T02:55:17.952Z,10.80
2018-12-15T02:57:45.413Z,10.10
2018-12-15T03:00:13.827Z,10.70
2018-12-15T03:02:41.283Z,9.97
2018-12-15T03:05:08.786Z,9.83
2018-12-15T03:07:36.250Z,10.60
2018-12-15T03:10:05.478Z,9.73
2018-12-15T03:12:32.939Z,10.17
2018-12-15T03:15:00.403Z,9.63
2018-12-15T03:17:27.904Z,10.50
2018-12-15T03:19:59.238Z,10.03
2018-12-15T03:22:26.734Z,10.80
2018-12-15T03:24:54.322Z,11.93
2018-12-15T03:27:21.860Z,12.27
2018-12-15T03:29:49.330Z,11.80
2018-12-15T03:32:16.827Z,11.50
2018-12-15T03:34:44.282Z,10.57
2018-12-15T03:37:11.795Z,11.73
2018-12-15T03:39:39.259Z,11.70
2018-12-15T03:42:06.736Z,11.53
2018-12-15T03:44:34.210Z,10.87
2018-12-15T03:47:01.687Z,11.57
2018-12-15T03:49:29.155Z,11.40
2018-12-15T03:51:56.641Z,11.60
2018-12-15T03:54:24.100Z,9.57
2018-12-15T03:56:51.575Z,10.40
2018-12-15T03:59:19.568Z,10.63
2018-12-15T04:01:47.066Z,10.80
2018-12-15T04:04:14.527Z,10.87
2018-12-15T04:06:42.030Z,11.93
2018-12-15T04:09:09.510Z,11.57
2018-12-15T04:11:37.022Z,11.90
2018-12-15T04:14:04.539Z,11.03
2018-12-15T04:16:32.000Z,11.80
2018-12-15T04:18:59.474Z,10.50
2018-12-15T04:21:26.938Z,12.20
2018-12-15T04:23:54.402Z,10.80
2018-12-15T04:26:21.862Z,11.23
2018-12-15T04:28:49.366Z,11.57
2018-12-15T04:31:16.828Z,11.03
2018-12-15T04:33:44.337Z,11.20
2018-12-15T04:36:16.195Z,12.13
2018-12-15T04:38:43.706Z,11.60
2018-12-15T04:41:12.215Z,11.37
2018-12-15T04:43:39.679Z,10.57
2018-12-15T04:46:07.188Z,11.40
2018-12-15T04:48:34.668Z,11.07
2018-12-15T04:51:02.171Z,10.97
2018-12-15T04:53:29.705Z,10.33
2018-12-15T04:55:57.302Z,11.83
2018-12-15T04:58:24.775Z,11.70
2018-12-15T05:00:52.251Z,10.87
2018-12-15T05:03:19.718Z,10.60
2018-12-15T05:05:47.220Z,10.20
2018-12-15T05:08:14.686Z,9.57
2018-12-15T05:10:42.142Z,11.37
2018-12-15T05:13:09.626Z,10.70
2018-12-15T05:15:37.100Z,10.73
2018-12-15T05:18:04.573Z,12.03
2018-12-15T05:20:32.138Z,11.27
2018-12-15T05:22:59.603Z,10.67
2018-12-15T05:25:27.079Z,11.20
2018-12-15T05:27:54.556Z,11.40
2018-12-15T05:30:22.027Z,12.13
2018-12-15T05:32:49.496Z,12.17
2018-12-15T05:35:17.001Z,11.23
2018-12-15T05:37:44.463Z,11.17
2018-12-15T05:40:11.940Z,11.67
2018-12-15T05:42:39.409Z,12.00
2018-12-15T05:45:06.951Z,12.23
2018-12-15T05:47:34.514Z,11.40
2018-12-15T05:50:02.163Z,10.90
2018-12-15T05:52:29.638Z,11.07
2018-12-15T05:54:57.117Z,11.20
2018-12-15T05:57:24.587Z,11.37
2018-12-15T05:59:52.282Z,11.23
2018-12-15T06:02:20.082Z,11.70
2018-12-15T06:04:47.555Z,11.97
2018-12-15T06:07:15.035Z,12.00
2018-12-15T06:09:42.499Z,11.20
2018-12-15T06:12:09.971Z,13.37
2018-12-15T06:14:37.591Z,11.57
2018-12-15T06:17:05.078Z,14.07
2018-12-15T06:19:32.699Z,11.80
2018-12-15T06:22:00.168Z,12.53
2018-12-15T06:24:27.671Z,10.70
2018-12-15T06:26:55.141Z,10.90
2018-12-15T06:29:22.605Z,9.57
2018-12-15T06:31:50.075Z,10.17
2018-12-15T06:34:17.579Z,9.77
2018-12-15T06:36:46.051Z,9.40
2018-12-15T06:39:13.523Z,10.40
2018-12-15T06:41:40.998Z,9.60
2018-12-15T06:44:08.540Z,7.83
2018-12-15T06:46:36.042Z,8.90
2018-12-15T06:49:03.510Z,8.20
2018-12-15T06:51:30.980Z,9.00
2018-12-15T06:53:58.446Z,10.57
2018-12-15T06:56:25.924Z,8.70
2018-12-15T06:58:53.658Z,8.00
2018-12-15T07:01:21.207Z,8.47
2018-12-15T07:03:48.661Z,4.70
2018-12-15T07:06:16.139Z,7.83
2018-12-15T07:08:43.624Z,7.10
2018-12-15T07:11:11.125Z,7.40
2018-12-15T07:13:38.595Z,8.73
2018-12-15T07:16:06.071Z,7.73
2018-12-15T07:18:33.564Z,8.33
2018-12-15T07:21:01.021Z,6.27
2018-12-15T07:23:28.494Z,9.20
2018-12-15T07:25:56.924Z,7.73
2018-12-15T07:28:24.396Z,8.60
2018-12-15T07:30:51.857Z,8.60
2018-12-15T07:33:19.358Z,7.73
2018-12-15T07:35:46.874Z,8.30
2018-12-15T07:38:14.351Z,8.67
2018-12-15T07:40:41.803Z,7.83
2018-12-15T07:43:09.283Z,8.20
2018-12-15T07:45:36.929Z,8.67
2018-12-15T07:48:04.485Z,8.60
2018-12-15T07:50:31.987Z,7.20
2018-12-15T07:52:59.490Z,8.43
2018-12-15T07:55:26.943Z,7.60
2018-12-15T07:57:54.514Z,8.17
2018-12-15T08:00:22.062Z,9.50
2018-12-15T08:02:49.558Z,7.90
2018-12-15T08:05:17.019Z,7.73
2018-12-15T08:07:44.589Z,8.40
2018-12-15T08:10:12.145Z,8.20
2018-12-15T08:12:42.451Z,6.13
2018-12-15T08:15:09.998Z,7.43
2018-12-15T08:17:37.540Z,8.27
2018-12-15T08:20:06.209Z,8.70
2018-12-15T08:22:33.706Z,6.73
2018-12-15T08:25:01.187Z,7.60
2018-12-15T08:27:28.666Z,8.43
2018-12-15T08:29:56.234Z,8.57
2018-12-15T08:32:23.803Z,4.50
2018-12-15T08:34:51.306Z,7.80
2018-12-15T08:37:18.807Z,7.70
2018-12-15T08:39:46.280Z,7.40
2018-12-15T08:42:13.750Z,6.37
2018-12-15T08:44:42.238Z,7.67
2018-12-15T08:47:09.725Z,10.03
2018-12-15T08:49:37.198Z,9.60
2018-12-15T08:52:04.651Z,7.90
2018-12-15T08:54:32.124Z,7.90
2018-12-15T08:56:59.595Z,7.00
2018-12-15T08:59:27.141Z,8.10
2018-12-15T09:01:54.702Z,7.20
2018-12-15T09:04:22.170Z,8.03
2018-12-15T09:06:49.692Z,8.47
2018-12-15T09:09:17.152Z,7.33
2018-12-15T09:11:44.622Z,4.83
2018-12-15T09:14:12.086Z,7.60
2018-12-15T09:16:39.571Z,5.80
2018-12-15T09:19:11.234Z,6.33
2018-12-15T09:21:36.498Z,7.00
2018-12-15T09:24:04.021Z,8.50
2018-12-15T09:26:31.495Z,5.27
2018-12-15T09:28:58.963Z,6.40
2018-12-15T09:31:26.430Z,6.90
2018-12-15T09:33:53.887Z,8.63
2018-12-15T09:36:21.363Z,6.70
2018-12-15T09:38:48.831Z,8.90
2018-12-15T09:41:16.381Z,8.90
2018-12-15T09:43:43.887Z,8.43
2018-12-15T09:46:11.371Z,7.67
2018-12-15T09:48:38.826Z,8.33
2018-12-15T09:51:06.550Z,8.40
2018-12-15T09:53:34.019Z,9.20
2018-12-15T09:56:01.537Z,8.00
2018-12-15T09:58:29.084Z,8.63
2018-12-15T10:00:57.496Z,4.90
2018-12-15T10:03:24.959Z,4.30
2018-12-15T10:05:52.455Z,8.10
2018-12-15T10:08:19.926Z,9.50
2018-12-15T10:10:47.438Z,8.80
2018-12-15T10:13:14.916Z,8.37
2018-12-15T10:15:42.374Z,9.10
2018-12-15T10:18:09.863Z,9.57
2018-12-15T10:20:37.339Z,9.53
2018-12-15T10:23:06.305Z,11.20
2018-12-15T10:25:33.926Z,9.20
2018-12-15T10:28:01.415Z,10.20
2018-12-15T10:30:34.504Z,9.40
2018-12-15T10:33:01.972Z,11.73
2018-12-15T10:35:29.430Z,13.93
2018-12-15T10:37:56.915Z,13.53
2018-12-15T10:40:24.432Z,14.13
2018-12-15T10:42:51.895Z,13.10
2018-12-15T10:45:19.441Z,14.13
2018-12-15T10:47:47.008Z,13.50
2018-12-15T10:50:14.750Z,11.60
2018-12-15T10:52:42.223Z,6.23
2018-12-15T10:55:11.726Z,10.20
2018-12-15T10:57:39.230Z,7.80
2018-12-15T11:00:10.202Z,10.37
2018-12-15T11:02:37.690Z,12.57
2018-12-15T11:05:05.603Z,11.30
2018-12-15T11:07:34.280Z,10.70
2018-12-15T11:10:01.944Z,10.73
2018-12-15T11:12:29.482Z,9.33
2018-12-15T11:14:56.950Z,11.10
2018-12-15T11:17:24.416Z,10.20
2018-12-15T11:19:51.923Z,11.60
2018-12-15T11:22:19.394Z,11.83
2018-12-15T11:24:46.987Z,10.23
2018-12-15T11:27:14.452Z,11.33
2018-12-15T11:29:41.928Z,5.00
2018-12-15T11:32:09.390Z,10.83
2018-12-15T11:34:36.855Z,9.63
2018-12-15T11:37:04.475Z,11.00
2018-12-15T11:39:31.983Z,10.03
2018-12-15T11:41:59.430Z,10.83
2018-12-15T11:44:26.903Z,10.77
2018-12-15T11:46:54.363Z,11.40
2018-12-15T11:49:21.845Z,10.70
2018-12-15T11:51:49.318Z,8.80
2018-12-15T11:54:16.786Z,5.87
2018-12-15T11:56:44.251Z,9.43
2018-12-15T11:59:11.707Z,9.87
2018-12-15T12:01:39.182Z,8.83
2018-12-15T12:04:06.649Z,9.93
2018-12-15T12:06:34.170Z,24.20
2018-12-15T12:09:01.652Z,10.80
2018-12-15T12:11:29.119Z,13.37
2018-12-15T12:14:00.267Z,12.20
2018-12-15T12:16:26.057Z,8.00
2018-12-15T12:18:53.538Z,8.23
2018-12-15T12:21:20.993Z,10.93
2018-12-15T12:23:48.459Z,7.30
2018-12-15T12:26:15.936Z,11.40
2018-12-15T12:28:43.437Z,9.83
2018-12-15T12:31:10.902Z,9.13
2018-12-15T12:33:38.378Z,10.10
2018-12-15T12:36:05.951Z,11.20
2018-12-15T12:38:33.414Z,10.83
2018-12-15T12:41:00.874Z,9.57
2018-12-15T12:43:28.351Z,11.20
2018-12-15T12:45:55.822Z,8.20
2018-12-15T12:48:23.359Z,12.10
2018-12-15T12:50:50.859Z,8.13
2018-12-15T12:53:18.341Z,6.83
2018-12-15T12:55:45.812Z,8.63
2018-12-15T12:58:13.319Z,10.07
2018-12-15T13:00:40.786Z,8.07
2018-12-15T13:03:08.261Z,11.67
2018-12-15T13:05:35.717Z,8.73
2018-12-15T13:08:03.180Z,10.87
2018-12-15T13:10:30.639Z,5.70
2018-12-15T13:12:58.106Z,12.97
2018-12-15T13:15:25.624Z,6.97
2018-12-15T13:17:53.081Z,5.53
2018-12-15T13:20:20.593Z,8.23
2018-12-15T13:22:48.062Z,6.50
2018-12-15T13:25:15.550Z,9.20
2018-12-15T13:27:43.055Z,8.40
2018-12-15T13:30:10.563Z,12.97
2018-12-15T13:32:38.109Z,11.27
2018-12-15T13:35:05.676Z,11.50
2018-12-15T13:37:33.151Z,9.20
2018-12-15T13:40:00.654Z,7.70
2018-12-15T13:42:28.127Z,9.03
2018-12-15T13:44:55.614Z,5.90
2018-12-15T13:47:23.078Z,8.23
2018-12-15T13:49:50.535Z,8.87
2018-12-15T13:52:18.140Z,8.50
2018-12-15T13:54:45.603Z,9.83
2018-12-15T13:57:13.087Z,10.40
2018-12-15T13:59:40.650Z,8.73
2018-12-15T14:02:08.114Z,8.83
2018-12-15T14:04:35.585Z,8.07
2018-12-15T14:07:03.099Z,7.63
2018-12-15T14:09:31.581Z,8.37
2018-12-15T14:11:59.050Z,8.80
2018-12-15T14:14:26.511Z,8.27
2018-12-15T14:16:53.979Z,7.83
2018-12-15T14:19:21.507Z,6.30
2018-12-15T14:21:49.020Z,8.17
2018-12-15T14:24:16.491Z,8.43
2018-12-15T14:26:43.975Z,8.70
2018-12-15T14:29:11.446Z,8.53
2018-12-15T14:31:38.919Z,9.80
2018-12-15T14:34:06.433Z,5.43
2018-12-15T14:36:33.924Z,5.40
2018-12-15T14:39:01.399Z,5.80
2018-12-15T14:41:30.484Z,7.50
2018-12-15T14:43:57.965Z,6.33
2018-12-15T14:46:25.439Z,7.60
2018-12-15T14:48:52.907Z,8.57
2018-12-15T14:51:20.384Z,8.97
2018-12-15T14:53:47.854Z,11.60
2018-12-15T14:56:15.317Z,12.03
2018-12-15T14:58:42.794Z,9.10
2018-12-15T15:01:10.254Z,8.20
2018-12-15T15:03:37.738Z,8.10
2018-12-15T15:06:05.279Z,7.60
2018-12-15T15:08:32.795Z,10.47
2018-12-15T15:11:00.329Z,10.07
2018-12-15T15:13:34.291Z,7.90
2018-12-15T15:15:57.310Z,7.77
2018-12-15T15:18:24.784Z,9.23
2018-12-15T15:20:52.247Z,8.30
2018-12-15T15:23:19.738Z,6.70
2018-12-15T15:25:47.201Z,9.53
2018-12-15T15:28:14.678Z,5.57
2018-12-15T15:30:42.146Z,7.80
2018-12-15T15:33:09.608Z,6.47
2018-12-15T15:35:37.113Z,3.23
2018-12-15T15:38:04.603Z,4.70
2018-12-15T15:40:32.078Z,7.80
2018-12-15T15:42:59.555Z,8.03
2018-12-15T15:45:27.058Z,9.30
2018-12-15T15:47:54.521Z,7.20
2018-12-15T15:50:22.009Z,9.13
2018-12-15T15:52:49.482Z,10.90
2018-12-15T15:55:17.042Z,10.50
2018-12-15T15:57:44.541Z,8.60
2018-12-15T16:00:12.086Z,8.50
2018-12-15T16:02:39.554Z,7.70
2018-12-15T16:05:07.214Z,10.57
2018-12-15T16:07:34.686Z,11.83
2018-12-15T16:10:02.304Z,8.43
2018-12-15T16:12:30.875Z,9.60
2018-12-15T16:14:58.483Z,9.30
2018-12-15T16:17:26.044Z,6.50
2018-12-15T16:19:53.510Z,6.07
2018-12-15T16:22:20.999Z,9.30
2018-12-15T16:24:48.482Z,9.60
2018-12-15T16:27:15.975Z,6.57
2018-12-15T16:29:43.458Z,9.17
2018-12-15T16:32:10.986Z,8.83
2018-12-15T16:34:38.490Z,7.60
2018-12-15T16:37:06.007Z,9.57
2018-12-15T16:39:33.490Z,8.97
2018-12-15T16:42:00.950Z,10.10
2018-12-15T16:44:28.483Z,9.87
2018-12-15T16:46:55.954Z,8.37
2018-12-15T16:49:23.447Z,9.23
2018-12-15T16:51:50.923Z,8.93
2018-12-15T16:54:18.431Z,7.10
2018-12-15T16:56:45.904Z,9.60
2018-12-15T16:59:13.369Z,13.03
2018-12-15T17:01:40.837Z,12.33
2018-12-15T17:04:08.402Z,11.27
2018-12-15T17:06:35.896Z,11.53
2018-12-15T17:09:05.863Z,8.83
2018-12-15T17:11:33.358Z,9.90
2018-12-15T17:14:00.831Z,7.47
2018-12-15T17:16:28.298Z,7.97
2018-12-15T17:18:55.754Z,7.40
2018-12-15T17:21:23.227Z,7.27
2018-12-15T17:23:50.691Z,6.93
2018-12-15T17:26:18.175Z,7.33
2018-12-15T17:28:45.638Z,8.60
2018-12-15T17:31:13.114Z,8.20
2018-12-15T17:33:40.594Z,6.50
2018-12-15T17:36:08.067Z,8.63
2018-12-15T17:38:35.870Z,5.57
2018-12-15T17:41:03.391Z,8.80
2018-12-15T17:43:30.885Z,8.80
2018-12-15T17:45:58.393Z,8.47
2018-12-15T17:48:25.874Z,7.83
2018-12-15T17:50:53.348Z,3.53
2018-12-15T17:53:20.811Z,8.00
2018-12-15T17:55:48.274Z,8.57
2018-12-15T17:58:15.756Z,8.30
2018-12-15T18:00:43.219Z,7.83
2018-12-15T18:03:10.720Z,7.80
2018-12-15T18:05:38.177Z,4.33
2018-12-15T18:08:05.647Z,8.20
2018-12-15T18:10:33.143Z,4.70
2018-12-15T18:13:00.611Z,4.60
2018-12-15T18:15:28.110Z,4.97
2018-12-15T18:17:55.587Z,8.60
2018-12-15T18:20:23.082Z,6.50
2018-12-15T18:22:50.586Z,9.03
2018-12-15T18:25:18.051Z,6.67
2018-12-15T18:27:45.514Z,5.10
2018-12-15T18:30:12.974Z,7.90
2018-12-15T18:32:40.440Z,8.50
2018-12-15T18:35:07.953Z,7.20
2018-12-15T18:37:36.395Z,8.47
2018-12-15T18:40:04.734Z,7.80
2018-12-15T18:42:32.198Z,8.23
2018-12-15T18:44:59.667Z,7.83
2018-12-15T18:47:27.210Z,5.47
2018-12-15T18:49:54.714Z,8.13
2018-12-15T18:52:22.222Z,8.80
2018-12-15T18:54:49.686Z,6.63
2018-12-15T18:57:17.229Z,9.50
2018-12-15T18:59:44.695Z,8.50
2018-12-15T19:02:12.196Z,9.20
2018-12-15T19:04:39.703Z,8.20
2018-12-15T19:14:04.806Z,7.43
2018-12-15T19:16:32.380Z,7.63
2018-12-15T19:18:59.889Z,8.23
2018-12-15T19:21:27.359Z,9.23
2018-12-15T19:23:54.870Z,8.40
2018-12-15T19:26:22.343Z,4.87
2018-12-15T19:28:49.818Z,5.00
2018-12-15T19:31:17.334Z,7.00
2018-12-15T19:33:44.817Z,6.60
2018-12-15T19:36:12.305Z,4.90
2018-12-15T19:38:40.726Z,8.57
2018-12-15T19:41:08.212Z,9.30
2018-12-15T19:43:35.679Z,9.13
2018-12-15T19:46:03.147Z,8.67
2018-12-15T19:48:30.619Z,8.73
2018-12-15T19:50:58.095Z,8.33
2018-12-15T19:53:25.558Z,4.77
2018-12-15T19:55:53.044Z,8.63
2018-12-15T19:58:20.524Z,7.33
2018-12-15T20:00:47.990Z,8.27
2018-12-15T20:03:15.460Z,9.43
2018-12-15T20:05:42.938Z,4.60
2018-12-15T20:08:10.411Z,10.13
2018-12-15T20:10:37.938Z,7.77
2018-12-15T20:13:05.415Z,8.63
2018-12-15T20:15:32.899Z,5.50
2018-12-15T20:18:00.397Z,7.97
2018-12-15T20:20:27.918Z,8.33
2018-12-15T20:22:55.393Z,9.13
2018-12-15T20:25:22.870Z,9.97
2018-12-15T20:27:50.393Z,8.87
2018-12-15T20:30:17.866Z,8.00
2018-12-15T20:32:45.354Z,8.70
2018-12-15T20:35:12.833Z,9.70
2018-12-15T20:37:40.302Z,9.10
2018-12-15T20:40:08.261Z,8.43
2018-12-15T20:42:35.730Z,8.30
2018-12-15T20:45:03.802Z,9.93
2018-12-15T20:47:31.283Z,8.80
2018-12-15T20:49:58.751Z,10.20
2018-12-15T20:52:26.231Z,9.90
2018-12-15T20:54:53.702Z,10.30
2018-12-15T20:57:21.207Z,10.70
2018-12-15T20:59:48.682Z,9.30
2018-12-15T21:02:16.170Z,9.43
2018-12-15T21:04:43.641Z,9.47
2018-12-15T21:07:11.140Z,9.33
2018-12-15T21:09:38.659Z,7.00
2018-12-15T21:12:06.185Z,8.00
2018-12-15T21:14:33.707Z,9.00
2018-12-15T21:17:01.174Z,9.97
2018-12-15T21:19:28.652Z,10.33
2018-12-15T21:21:56.235Z,9.37
2018-12-15T21:24:23.704Z,9.87
2018-12-15T21:26:51.195Z,9.80
2018-12-15T21:29:18.656Z,6.93
2018-12-15T21:31:46.947Z,8.93
2018-12-15T21:34:14.530Z,9.17
2018-12-15T21:36:42.043Z,9.50
2018-12-15T21:39:09.523Z,8.57
2018-12-15T21:41:37.032Z,6.90
2018-12-15T21:44:04.543Z,8.80
2018-12-15T21:46:32.011Z,8.00
2018-12-15T21:48:59.489Z,4.77
2018-12-15T21:51:27.016Z,9.57
2018-12-15T21:53:54.500Z,11.40
2018-12-15T21:56:21.966Z,11.00
2018-12-15T21:58:49.494Z,10.30
2018-12-15T22:01:16.962Z,13.00
2018-12-15T22:03:44.443Z,11.47
2018-12-15T22:06:11.978Z,10.70
2018-12-15T22:08:39.470Z,11.00
2018-12-15T22:11:06.994Z,11.07
2018-12-15T22:13:34.526Z,9.10
2018-12-15T22:16:02.008Z,9.97
2018-12-15T22:18:29.483Z,9.93
2018-12-15T22:20:57.190Z,11.10
2018-12-15T22:23:24.699Z,12.47
2018-12-15T22:25:52.210Z,11.50
2018-12-15T22:28:19.687Z,10.67
2018-12-15T22:30:47.151Z,8.30
2018-12-15T22:33:14.674Z,11.80
2018-12-15T22:35:42.143Z,12.87
2018-12-15T22:38:09.612Z,13.77
2018-12-15T22:40:37.110Z,7.87
2018-12-15T22:43:04.583Z,12.40
2018-12-15T22:45:32.080Z,12.53
2018-12-15T22:47:59.552Z,12.10
2018-12-15T22:50:27.034Z,10.90
2018-12-15T22:52:54.543Z,12.30
2018-12-15T22:55:22.042Z,10.13
2018-12-15T22:57:49.515Z,13.00
2018-12-15T23:00:16.986Z,10.33
2018-12-15T23:02:44.470Z,12.77
2018-12-15T23:05:12.030Z,11.17
2018-12-15T23:07:39.498Z,13.97
2018-12-15T23:10:07.294Z,13.60
2018-12-15T23:12:34.775Z,12.57
2018-12-15T23:15:02.258Z,13.20
2018-12-15T23:17:29.725Z,13.37
2018-12-15T23:19:57.206Z,12.97
2018-12-15T23:22:24.712Z,13.63
2018-12-15T23:24:52.227Z,13.80
2018-12-15T23:27:19.700Z,12.90
2018-12-15T23:29:47.198Z,12.53
2018-12-15T23:32:14.798Z,12.37
2018-12-15T23:34:42.280Z,12.57
2018-12-15T23:37:09.751Z,14.50
2018-12-15T23:39:37.237Z,15.50
2018-12-15T23:42:04.716Z,15.28
2018-12-15T23:44:32.235Z,14.40
2018-12-15T23:46:59.724Z,15.27
2018-12-15T23:49:27.195Z,17.03
2018-12-15T23:51:54.678Z,16.80
2018-12-15T23:54:22.171Z,17.70
2018-12-15T23:56:49.658Z,17.57
2018-12-15T23:59:17.135Z,16.13
